createdAt,value
2019-05-19T00:01:42.105Z,7
2019-05-19T00:03:41.828Z,6.8
2019-05-19T00:05:41.780Z,7.4
2019-05-19T00:07:41.575Z,6.5
2019-05-19T00:09:41.817Z,5.7
2019-05-19T00:11:41.206Z,7
2019-05-19T00:13:41.150Z,6.8
2019-05-19T00:15:41.076Z,6.4
2019-05-19T00:17:40.940Z,6.4
2019-05-19T00:19:40.780Z,6.6
2019-05-19T00:21:40.550Z,5.3
2019-05-19T00:23:40.376Z,5.2
2019-05-19T00:25:40.307Z,5.1
2019-05-19T00:27:40.114Z,5.5
2019-05-19T00:29:39.886Z,5.5
2019-05-19T00:31:39.728Z,5.4
2019-05-19T00:33:39.790Z,4.9
2019-05-19T00:35:39.592Z,5.2
2019-05-19T00:37:39.423Z,4.7
2019-05-19T00:39:39.039Z,4.6
2019-05-19T00:41:38.890Z,5.1
2019-05-19T00:43:39.074Z,5.3
2019-05-19T00:45:38.898Z,4.5
2019-05-19T00:47:38.713Z,4.3
2019-05-19T00:49:41.610Z,5
2019-05-19T00:51:38.610Z,4.4
2019-05-19T00:53:38.814Z,4.4
2019-05-19T00:55:38.027Z,3.9
2019-05-19T00:57:38.137Z,4.3
2019-05-19T00:59:38.702Z,3.9
2019-05-19T01:01:37.253Z,3.4
2019-05-19T01:03:37.146Z,3.9
2019-05-19T01:05:37.190Z,3.7
2019-05-19T01:07:37.948Z,3.8
2019-05-19T01:09:36.663Z,3.5
2019-05-19T01:11:36.617Z,2.9
2019-05-19T01:13:37.371Z,3.6
2019-05-19T01:15:36.205Z,3
2019-05-19T01:17:36.054Z,3.5
2019-05-19T01:19:35.993Z,3.2
2019-05-19T01:21:36.936Z,3
2019-05-19T01:23:35.647Z,3.1
2019-05-19T01:25:35.460Z,3.1
2019-05-19T01:27:35.354Z,3.3
2019-05-19T01:29:35.120Z,2.9
2019-05-19T01:31:35.205Z,3.3
2019-05-19T01:33:34.711Z,3.1
2019-05-19T01:35:34.807Z,2.8
2019-05-19T01:37:34.313Z,3
2019-05-19T01:39:34.135Z,3
2019-05-19T01:41:34.154Z,3
2019-05-19T01:43:33.722Z,3
2019-05-19T01:45:33.664Z,3.2
2019-05-19T01:47:33.613Z,2.9
2019-05-19T01:49:33.517Z,2.7
2019-05-19T01:51:33.327Z,2.8
2019-05-19T01:53:33.031Z,2.8
2019-05-19T01:55:32.871Z,2.5
2019-05-19T01:57:32.717Z,2.8
2019-05-19T01:59:32.562Z,2.8
2019-05-19T02:01:32.495Z,2.6
2019-05-19T02:03:32.409Z,2.8
2019-05-19T02:05:32.090Z,2.7
2019-05-19T02:07:32.061Z,3
2019-05-19T02:09:32.079Z,2.7
2019-05-19T02:11:31.645Z,2.8
2019-05-19T02:13:31.761Z,3
2019-05-19T02:15:31.243Z,2.7
2019-05-19T02:17:31.105Z,2.7
2019-05-19T02:19:30.786Z,2.5
2019-05-19T02:21:30.946Z,2.6
2019-05-19T02:23:30.454Z,2.3
2019-05-19T02:25:33.286Z,2.6
2019-05-19T02:27:30.241Z,2.9
2019-05-19T02:29:30.073Z,2.4
2019-05-19T02:31:29.818Z,2.8
2019-05-19T02:33:29.806Z,2.7
2019-05-19T02:35:29.541Z,2.6
2019-05-19T02:37:29.237Z,2.4
2019-05-19T02:39:29.281Z,2.7
2019-05-19T02:41:31.724Z,2.8
2019-05-19T02:43:29.582Z,2.8
2019-05-19T02:45:33.751Z,2.6
2019-05-19T02:47:29.419Z,2.3
2019-05-19T02:49:29.929Z,2.5
2019-05-19T02:51:29.936Z,2.4
2019-05-19T02:53:28.867Z,3
2019-05-19T02:55:29.644Z,2.2
2019-05-19T02:57:28.099Z,3
2019-05-19T02:59:28.822Z,2.3
2019-05-19T03:01:27.351Z,2.5
2019-05-19T03:03:28.086Z,2
2019-05-19T03:05:27.199Z,2.3
2019-05-19T03:07:26.918Z,2.3
2019-05-19T03:09:26.621Z,2.4
2019-05-19T03:11:27.036Z,2
2019-05-19T03:13:26.429Z,2.2
2019-05-19T03:15:26.056Z,2.2
2019-05-19T03:17:26.039Z,2
2019-05-19T03:19:26.014Z,2
2019-05-19T03:21:25.978Z,2
2019-05-19T03:23:25.446Z,1.6
2019-05-19T03:25:25.367Z,2.1
2019-05-19T03:27:25.216Z,1.4
2019-05-19T03:29:25.056Z,1.8
2019-05-19T03:31:25.130Z,1.7
2019-05-19T03:33:24.674Z,1.5
2019-05-19T03:35:24.581Z,1.5
2019-05-19T03:37:24.445Z,1.5
2019-05-19T03:39:24.229Z,1.4
2019-05-19T03:41:24.173Z,1.5
2019-05-19T03:43:24.052Z,1.6
2019-05-19T03:45:23.720Z,1.6
2019-05-19T03:47:23.713Z,1.4
2019-05-19T03:49:23.480Z,1.3
2019-05-19T03:51:31.001Z,1.4
2019-05-19T03:53:23.110Z,1.3
2019-05-19T03:55:23.184Z,1.6
2019-05-19T03:57:22.767Z,1.5
2019-05-19T03:59:22.620Z,1.3
2019-05-19T04:01:22.782Z,1.3
2019-05-19T04:03:22.407Z,1.3
2019-05-19T04:05:22.234Z,1.3
2019-05-19T04:07:22.242Z,1.6
2019-05-19T04:09:21.827Z,1.6
2019-05-19T04:11:21.983Z,1.1
2019-05-19T04:13:21.786Z,1.3
2019-05-19T04:15:21.558Z,1.5
2019-05-19T04:17:21.341Z,1.5
2019-05-19T04:19:21.444Z,1.3
2019-05-19T04:21:21.112Z,1.3
2019-05-19T04:23:20.917Z,1.5
2019-05-19T04:25:20.904Z,1.2
2019-05-19T04:27:20.575Z,1.3
2019-05-19T04:29:20.251Z,1.3
2019-05-19T04:31:20.165Z,1.4
2019-05-19T04:33:20.128Z,1.4
2019-05-19T04:35:19.866Z,1.6
2019-05-19T04:37:19.970Z,1.4
2019-05-19T04:39:19.510Z,1.4
2019-05-19T04:41:19.717Z,1.5
2019-05-19T04:43:19.470Z,1.7
2019-05-19T04:45:19.111Z,1.5
2019-05-19T04:47:19.011Z,1.7
2019-05-19T04:49:18.859Z,1.8
2019-05-19T04:51:18.919Z,1.6
2019-05-19T04:53:18.607Z,1.6
2019-05-19T04:55:18.603Z,1.6
2019-05-19T04:57:18.325Z,1.5
2019-05-19T04:59:18.806Z,1.3
2019-05-19T05:01:18.166Z,1
2019-05-19T05:03:17.986Z,1.2
2019-05-19T05:05:18.009Z,1.3
2019-05-19T05:07:17.717Z,1.1
2019-05-19T05:09:17.474Z,1.1
2019-05-19T05:11:17.380Z,1.1
2019-05-19T05:13:17.215Z,1.1
2019-05-19T05:15:18.184Z,1.1
2019-05-19T05:17:17.163Z,1.1
2019-05-19T05:19:16.993Z,1
2019-05-19T05:21:16.892Z,1.3
2019-05-19T05:23:16.721Z,1
2019-05-19T05:25:17.738Z,1
2019-05-19T05:27:16.474Z,1.1
2019-05-19T05:29:16.354Z,1.1
2019-05-19T05:31:18.511Z,1
2019-05-19T05:33:15.916Z,1.1
2019-05-19T05:35:15.997Z,1
2019-05-19T05:37:15.533Z,1
2019-05-19T05:39:15.726Z,1.2
2019-05-19T05:41:15.456Z,1.1
2019-05-19T05:43:15.383Z,0.9
2019-05-19T05:45:15.373Z,1.1
2019-05-19T05:47:15.130Z,1.1
2019-05-19T05:49:14.857Z,0.9
2019-05-19T05:51:16.502Z,1
2019-05-19T05:53:15.075Z,1.1
2019-05-19T05:55:14.625Z,1
2019-05-19T05:57:14.524Z,1.1
2019-05-19T05:59:14.230Z,1.2
2019-05-19T06:01:14.206Z,1.1
2019-05-19T06:03:14.233Z,1.2
2019-05-19T06:05:14.171Z,1.2
2019-05-19T06:07:16.641Z,1
2019-05-19T06:09:13.748Z,1.4
2019-05-19T06:11:13.598Z,1.1
2019-05-19T06:13:13.502Z,1.2
2019-05-19T06:15:13.565Z,1.3
2019-05-19T06:17:14.228Z,0.9
2019-05-19T06:19:13.190Z,1
2019-05-19T06:21:13.062Z,1
2019-05-19T06:23:13.045Z,1.2
2019-05-19T06:25:12.986Z,1.4
2019-05-19T06:27:12.796Z,1.1
2019-05-19T06:29:12.493Z,1.1
2019-05-19T06:31:12.508Z,1.7
2019-05-19T06:33:13.343Z,1.3
2019-05-19T06:35:13.073Z,1.1
2019-05-19T06:37:12.291Z,1
2019-05-19T06:39:12.020Z,1
2019-05-19T06:41:12.135Z,1.1
2019-05-19T06:43:11.934Z,1.1
2019-05-19T06:45:12.166Z,1.1
2019-05-19T06:47:11.628Z,0.8
2019-05-19T06:49:11.534Z,1.1
2019-05-19T06:51:11.426Z,1.1
2019-05-19T06:53:14.469Z,1
2019-05-19T06:55:11.715Z,1
2019-05-19T06:57:11.150Z,1.1
2019-05-19T06:59:11.006Z,1
2019-05-19T07:01:10.964Z,1.2
2019-05-19T07:03:11.359Z,1
2019-05-19T07:05:11.346Z,0.7
2019-05-19T07:07:10.704Z,0.8
2019-05-19T07:09:11.526Z,0.9
2019-05-19T07:11:11.622Z,0.9
2019-05-19T07:13:10.257Z,1.1
2019-05-19T07:15:11.385Z,0.8
2019-05-19T07:17:10.034Z,0.9
2019-05-19T07:19:09.915Z,1
2019-05-19T07:21:10.749Z,1
2019-05-19T07:23:09.895Z,0.9
2019-05-19T07:25:09.974Z,1.1
2019-05-19T07:27:09.745Z,0.9
2019-05-19T07:29:09.602Z,1.1
2019-05-19T07:31:09.716Z,0.9
2019-05-19T07:33:09.220Z,0.9
2019-05-19T07:35:09.384Z,1.1
2019-05-19T07:37:10.360Z,1.2
2019-05-19T07:39:09.267Z,0.8
2019-05-19T07:41:09.138Z,0.7
2019-05-19T07:43:08.995Z,0.9
2019-05-19T07:45:09.813Z,1.1
2019-05-19T07:47:08.684Z,1.2
2019-05-19T07:49:08.603Z,1.1
2019-05-19T07:51:08.586Z,0.9
2019-05-19T07:53:08.559Z,1
2019-05-19T07:55:08.587Z,0.9
2019-05-19T07:57:08.355Z,0.9
2019-05-19T07:59:09.213Z,1
2019-05-19T08:01:08.178Z,1.2
2019-05-19T08:03:07.993Z,1
2019-05-19T08:05:08.063Z,1.1
2019-05-19T08:07:07.997Z,1.2
2019-05-19T08:09:07.804Z,1
2019-05-19T08:11:07.661Z,1
2019-05-19T08:13:07.597Z,1.1
2019-05-19T08:15:07.778Z,1.1
2019-05-19T08:17:07.430Z,1
2019-05-19T08:19:07.071Z,0.9
2019-05-19T08:21:07.280Z,0.9
2019-05-19T08:23:07.093Z,1.1
2019-05-19T08:25:09.066Z,1.1
2019-05-19T08:27:07.483Z,1.3
2019-05-19T08:29:07.030Z,1.2
2019-05-19T08:31:06.804Z,1.2
2019-05-19T08:33:06.702Z,1
2019-05-19T08:35:06.915Z,0.9
2019-05-19T08:37:06.788Z,1.1
2019-05-19T08:39:06.727Z,1
2019-05-19T08:41:07.861Z,1.1
2019-05-19T08:43:06.329Z,1
2019-05-19T08:45:07.018Z,1.4
2019-05-19T08:47:06.218Z,1
2019-05-19T08:49:06.589Z,1
2019-05-19T08:51:06.754Z,1.3
2019-05-19T08:53:06.039Z,1.3
2019-05-19T08:55:06.318Z,1.2
2019-05-19T08:57:05.887Z,1.2
2019-05-19T08:59:06.834Z,0.9
2019-05-19T09:01:05.855Z,0.9
2019-05-19T09:03:05.870Z,1.4
2019-05-19T09:05:06.109Z,1.1
2019-05-19T09:07:05.916Z,1.1
2019-05-19T09:09:06.574Z,1
2019-05-19T09:11:05.661Z,1.2
2019-05-19T09:13:05.721Z,1.1
2019-05-19T09:15:06.505Z,1.1
2019-05-19T09:17:05.383Z,1
2019-05-19T09:19:05.383Z,1.2
2019-05-19T09:21:06.245Z,1.2
2019-05-19T09:23:05.232Z,1.1
2019-05-19T09:25:05.895Z,1.1
2019-05-19T09:27:05.514Z,1.4
2019-05-19T09:29:05.221Z,1.3
2019-05-19T09:31:04.970Z,1.6
2019-05-19T09:33:04.917Z,1.2
2019-05-19T09:35:05.355Z,1.2
2019-05-19T09:37:04.842Z,1.1
2019-05-19T09:39:06.739Z,1
2019-05-19T09:41:05.029Z,1.1
2019-05-19T09:43:05.162Z,1.2
2019-05-19T09:45:05.354Z,1.2
2019-05-19T09:47:04.750Z,1.4
2019-05-19T09:49:04.803Z,1.2
2019-05-19T09:51:04.598Z,1.4
2019-05-19T09:53:04.437Z,1.3
2019-05-19T09:55:04.898Z,1.1
2019-05-19T09:57:07.031Z,1.2
2019-05-19T09:59:04.216Z,1.2
2019-05-19T10:01:04.408Z,1.2
2019-05-19T10:03:04.274Z,1.1
2019-05-19T10:05:04.879Z,1.2
2019-05-19T10:07:05.169Z,1.6
2019-05-19T10:09:09.944Z,1.2
2019-05-19T10:11:20.383Z,1.2
2019-05-19T10:13:04.001Z,1.3
2019-05-19T10:15:05.243Z,1.3
2019-05-19T10:17:03.996Z,1.1
2019-05-19T10:19:03.865Z,1.1
2019-05-19T10:21:03.887Z,1.1
2019-05-19T10:23:03.788Z,1.1
2019-05-19T10:25:21.130Z,1.2
2019-05-19T10:27:03.843Z,1.1
2019-05-19T10:29:03.556Z,1.2
2019-05-19T10:31:03.852Z,1
2019-05-19T10:33:03.625Z,1.1
2019-05-19T10:35:03.973Z,1.4
2019-05-19T10:37:03.638Z,1.1
2019-05-19T10:39:04.811Z,0.9
2019-05-19T10:41:03.330Z,1
2019-05-19T10:43:03.289Z,1.3
2019-05-19T10:45:04.306Z,1
2019-05-19T10:47:03.574Z,1.2
2019-05-19T10:49:03.193Z,1.2
2019-05-19T10:51:04.173Z,1
2019-05-19T10:53:03.067Z,1.1
2019-05-19T10:55:04.433Z,1.5
2019-05-19T10:57:03.056Z,1.8
2019-05-19T10:59:03.079Z,1.5
2019-05-19T11:01:03.252Z,1.3
2019-05-19T11:03:02.932Z,1.2
2019-05-19T11:05:03.331Z,1.2
2019-05-19T11:07:02.870Z,1
2019-05-19T11:09:04.397Z,1
2019-05-19T11:11:02.894Z,1.1
2019-05-19T11:13:02.891Z,1.4
2019-05-19T11:15:04.468Z,1.2
2019-05-19T11:17:02.602Z,1
2019-05-19T11:19:02.453Z,1
2019-05-19T11:21:02.861Z,1.2
2019-05-19T11:23:02.543Z,1.4
2019-05-19T11:25:02.611Z,1.2
2019-05-19T11:27:02.408Z,1.2
2019-05-19T11:29:02.487Z,1.2
2019-05-19T11:31:02.619Z,2.3
2019-05-19T11:33:02.387Z,1.4
2019-05-19T11:35:02.458Z,1.4
2019-05-19T11:37:02.514Z,1.2
2019-05-19T11:39:03.870Z,1.6
2019-05-19T11:41:03.993Z,1.4
2019-05-19T11:43:02.478Z,1.2
2019-05-19T11:45:02.281Z,1.1
2019-05-19T11:47:02.351Z,1
2019-05-19T11:49:02.600Z,1.1
2019-05-19T11:51:02.361Z,1.2
2019-05-19T11:53:02.342Z,1.1
2019-05-19T11:55:03.506Z,1.3
2019-05-19T11:57:02.642Z,1.1
2019-05-19T11:59:02.542Z,1.3
2019-05-19T12:01:02.404Z,1.2
2019-05-19T12:03:02.643Z,1.1
2019-05-19T12:05:02.573Z,1
2019-05-19T12:07:02.422Z,1
2019-05-19T12:09:04.358Z,1
2019-05-19T12:11:02.485Z,2.2
2019-05-19T12:13:03.088Z,1.7
2019-05-19T12:15:02.936Z,1.1
2019-05-19T12:17:02.910Z,1.3
2019-05-19T12:19:02.700Z,1.3
2019-05-19T12:21:02.952Z,2.1
2019-05-19T12:23:03.348Z,1.4
2019-05-19T12:25:03.563Z,1.8
2019-05-19T12:27:03.384Z,1.2
2019-05-19T12:29:03.759Z,1.1
2019-05-19T12:31:03.835Z,2.2
2019-05-19T12:33:03.999Z,1.7
2019-05-19T12:35:04.697Z,1.3
2019-05-19T12:37:04.542Z,1.1
2019-05-19T12:39:06.692Z,1.2
2019-05-19T12:41:04.676Z,1.4
2019-05-19T12:43:05.847Z,1.6
2019-05-19T12:45:05.113Z,1.3
2019-05-19T12:47:05.139Z,1
2019-05-19T12:49:05.254Z,1.6
2019-05-19T12:51:05.383Z,1.5
2019-05-19T12:53:05.531Z,1.1
2019-05-19T12:55:06.564Z,1.1
2019-05-19T12:57:06.083Z,1
2019-05-19T12:59:06.048Z,1
2019-05-19T13:01:06.324Z,1
2019-05-19T13:03:06.324Z,1.1
2019-05-19T13:05:06.903Z,1
2019-05-19T13:07:06.581Z,1
2019-05-19T13:09:07.004Z,1
2019-05-19T13:11:06.905Z,1.1
2019-05-19T13:13:07.027Z,1.3
2019-05-19T13:15:08.644Z,1
2019-05-19T13:17:07.096Z,1
2019-05-19T13:19:07.408Z,1.5
2019-05-19T13:21:07.641Z,1.3
2019-05-19T13:23:07.666Z,1.4
2019-05-19T13:25:08.079Z,1.5
2019-05-19T13:27:08.082Z,1.1
2019-05-19T13:29:08.012Z,1
2019-05-19T13:31:09.442Z,1.3
2019-05-19T13:33:08.419Z,1.1
2019-05-19T13:35:08.797Z,1.4
2019-05-19T13:37:08.826Z,0.9
2019-05-19T13:39:09.373Z,1.3
2019-05-19T13:41:09.131Z,1.5
2019-05-19T13:43:09.383Z,1.4
2019-05-19T13:45:10.109Z,1.1
2019-05-19T13:47:09.809Z,1.1
2019-05-19T13:49:10.135Z,1
2019-05-19T13:51:10.108Z,1.2
2019-05-19T13:53:11.939Z,1.1
2019-05-19T13:55:12.336Z,1.9
2019-05-19T13:57:12.677Z,1.7
2019-05-19T13:59:10.924Z,1.2
2019-05-19T14:01:27.547Z,1.2
2019-05-19T14:03:11.297Z,1.1
2019-05-19T14:05:11.778Z,1.1
2019-05-19T14:07:11.822Z,1.2
2019-05-19T14:09:15.105Z,1.2
2019-05-19T14:11:12.245Z,1
2019-05-19T14:13:12.487Z,1
2019-05-19T14:15:13.295Z,1.2
2019-05-19T14:17:12.847Z,1.2
2019-05-19T14:19:12.984Z,1.5
2019-05-19T14:21:13.236Z,1.4
2019-05-19T14:23:13.389Z,1.6
2019-05-19T14:25:13.935Z,0.9
2019-05-19T14:27:28.414Z,1.1
2019-05-19T14:29:13.928Z,1.1
2019-05-19T14:31:14.509Z,1.1
2019-05-19T14:33:14.280Z,1.3
2019-05-19T14:35:14.869Z,1.1
2019-05-19T14:37:14.552Z,1.1
2019-05-19T14:39:14.871Z,1.2
2019-05-19T14:41:15.118Z,1.2
2019-05-19T14:43:15.536Z,1.4
2019-05-19T14:45:16.773Z,1.4
2019-05-19T14:47:15.858Z,1.1
2019-05-19T14:49:16.942Z,1.4
2019-05-19T14:51:16.362Z,1.6
2019-05-19T14:53:17.570Z,1.4
2019-05-19T14:55:17.059Z,1.5
2019-05-19T14:57:17.308Z,1.5
2019-05-19T14:59:17.060Z,1.3
2019-05-19T15:01:17.521Z,1.3
2019-05-19T15:03:17.467Z,1.1
2019-05-19T15:05:18.125Z,1.1
2019-05-19T15:07:17.870Z,1.2
2019-05-19T15:09:18.124Z,1.5
2019-05-19T15:11:18.278Z,1.3
2019-05-19T15:13:18.603Z,1.3
2019-05-19T15:15:19.175Z,1.4
2019-05-19T15:17:19.019Z,1.1
2019-05-19T15:19:19.165Z,1.2
2019-05-19T15:21:19.855Z,1.4
2019-05-19T15:23:19.721Z,1.5
2019-05-19T15:25:19.865Z,1.1
2019-05-19T15:27:21.378Z,1.4
2019-05-19T15:29:20.166Z,1.4
2019-05-19T15:31:20.562Z,1.3
2019-05-19T15:33:20.639Z,1.2
2019-05-19T15:35:20.894Z,1.3
2019-05-19T15:37:22.043Z,2.4
2019-05-19T15:39:21.392Z,1.3
2019-05-19T15:41:21.720Z,1
2019-05-19T15:43:21.911Z,1.1
2019-05-19T15:45:22.309Z,1.4
2019-05-19T15:47:23.513Z,1.2
2019-05-19T15:49:22.777Z,1.2
2019-05-19T15:51:29.425Z,1.4
2019-05-19T15:53:23.838Z,1.4
2019-05-19T15:55:25.234Z,1.3
2019-05-19T15:57:23.637Z,2.1
2019-05-19T15:59:25.018Z,1.2
2019-05-19T16:01:24.243Z,1.5
2019-05-19T16:03:24.275Z,1.4
2019-05-19T16:05:24.745Z,1.3
2019-05-19T16:07:25.100Z,1.6
2019-05-19T16:09:24.930Z,1.4
2019-05-19T16:11:34.152Z,1.4
2019-05-19T16:11:40.233Z,1.4
2019-05-19T16:11:41.355Z,1.4
2019-05-19T16:11:46.529Z,1.4
2019-05-19T16:12:01.426Z,1.4
2019-05-19T16:13:25.518Z,1.6
2019-05-19T16:15:25.772Z,0.9
2019-05-19T16:17:25.873Z,1.5
2019-05-19T16:19:25.958Z,1.5
2019-05-19T16:21:26.356Z,1.1
2019-05-19T16:23:26.508Z,1.3
2019-05-19T16:25:27.498Z,1.3
2019-05-19T16:27:27.344Z,1.5
2019-05-19T16:29:27.302Z,1.5
2019-05-19T16:31:31.086Z,1.5
2019-05-19T16:33:27.622Z,1.6
2019-05-19T16:35:28.667Z,1.5
2019-05-19T16:37:28.161Z,1.5
2019-05-19T16:39:28.240Z,1.4
2019-05-19T16:41:28.242Z,1.4
2019-05-19T16:43:28.346Z,1.5
2019-05-19T16:45:28.614Z,1.4
2019-05-19T16:47:28.751Z,1.7
2019-05-19T16:49:28.706Z,1.6
2019-05-19T16:51:28.784Z,1.6
2019-05-19T16:53:28.826Z,1.5
2019-05-19T16:55:28.738Z,1.3
2019-05-19T16:57:29.084Z,1.4
2019-05-19T16:59:28.958Z,2.3
2019-05-19T17:01:28.817Z,1.5
2019-05-19T17:03:28.825Z,1.3
2019-05-19T17:05:29.151Z,1.5
2019-05-19T17:07:28.936Z,1.5
2019-05-19T17:09:28.924Z,1.4
2019-05-19T17:11:29.071Z,1.3
2019-05-19T17:13:28.810Z,2.3
2019-05-19T17:15:28.915Z,1.8
2019-05-19T17:17:28.933Z,1.7
2019-05-19T17:19:28.923Z,1.7
2019-05-19T17:21:28.960Z,1.8
2019-05-19T17:23:29.150Z,2.3
2019-05-19T17:25:28.793Z,1.7
2019-05-19T17:27:29.084Z,1.5
2019-05-19T17:29:28.718Z,1.4
2019-05-19T17:31:29.593Z,1.6
2019-05-19T17:33:28.749Z,2.2
2019-05-19T17:35:28.827Z,1.9
2019-05-19T17:37:28.656Z,1.8
2019-05-19T17:39:28.670Z,1.7
2019-05-19T17:41:28.665Z,1.6
2019-05-19T17:43:28.626Z,1.7
2019-05-19T17:45:28.435Z,1.5
2019-05-19T17:47:28.471Z,1.6
2019-05-19T17:49:29.364Z,1.6
2019-05-19T17:51:28.510Z,1.5
2019-05-19T17:53:30.353Z,1.7
2019-05-19T17:55:29.010Z,1.8
2019-05-19T17:57:28.866Z,1.7
2019-05-19T17:59:28.107Z,1.9
2019-05-19T18:01:28.222Z,1.8
2019-05-19T18:03:28.958Z,1.9
2019-05-19T18:05:28.020Z,1.8
2019-05-19T18:07:28.032Z,1.9
2019-05-19T18:09:27.691Z,1.9
2019-05-19T18:11:27.676Z,2.3
2019-05-19T18:13:28.336Z,2.3
2019-05-19T18:15:27.535Z,2.2
2019-05-19T18:17:27.436Z,2
2019-05-19T18:19:27.448Z,2.2
2019-05-19T18:21:27.499Z,2.2
2019-05-19T18:23:27.758Z,2
2019-05-19T18:25:27.495Z,2.2
2019-05-19T18:27:27.405Z,2.4
2019-05-19T18:29:31.271Z,2.2
2019-05-19T18:31:27.062Z,2.2
2019-05-19T18:33:27.042Z,2.4
2019-05-19T18:35:26.885Z,4.2
2019-05-19T18:37:27.044Z,2.3
2019-05-19T18:39:26.850Z,2.3
2019-05-19T18:41:28.080Z,2.1
2019-05-19T18:43:26.700Z,2.3
2019-05-19T18:45:26.634Z,2.2
2019-05-19T18:47:27.561Z,2.4
2019-05-19T18:49:26.443Z,2.5
2019-05-19T18:51:26.306Z,2.2
2019-05-19T18:53:26.418Z,2.1
2019-05-19T18:55:26.186Z,2.3
2019-05-19T18:57:26.069Z,2.3
2019-05-19T18:59:26.032Z,2.3
2019-05-19T19:01:27.305Z,2.8
2019-05-19T19:03:26.612Z,2.6
2019-05-19T19:05:26.623Z,2.8
2019-05-19T19:07:27.062Z,2.6
2019-05-19T19:09:26.360Z,2.7
2019-05-19T19:11:25.839Z,2.3
2019-05-19T19:13:25.669Z,2.1
2019-05-19T19:15:26.731Z,2.3
2019-05-19T19:17:25.881Z,2
2019-05-19T19:19:26.089Z,1.8
2019-05-19T19:21:25.141Z,1.8
2019-05-19T19:23:25.172Z,2.1
2019-05-19T19:25:25.123Z,2
2019-05-19T19:27:25.104Z,2.2
2019-05-19T19:29:24.986Z,2.2
2019-05-19T19:31:25.033Z,1.8
2019-05-19T19:33:24.786Z,2.2
2019-05-19T19:35:24.879Z,2.1
2019-05-19T19:37:25.707Z,1.8
2019-05-19T19:39:24.590Z,1.7
2019-05-19T19:41:24.340Z,1.8
2019-05-19T19:43:24.218Z,1.9
2019-05-19T19:45:24.382Z,1.9
2019-05-19T19:47:24.079Z,2
2019-05-19T19:49:23.861Z,2.3
2019-05-19T19:51:23.863Z,1.8
2019-05-19T19:53:23.983Z,1.9
2019-05-19T19:55:23.517Z,2.2
2019-05-19T19:57:23.452Z,2.7
2019-05-19T19:59:23.416Z,2.1
2019-05-19T20:01:23.189Z,2.2
2019-05-19T20:03:24.633Z,2.3
2019-05-19T20:05:23.095Z,2.6
2019-05-19T20:07:23.193Z,2.5
2019-05-19T20:09:23.021Z,2
2019-05-19T20:11:22.567Z,2.2
2019-05-19T20:13:22.497Z,2.7
2019-05-19T20:15:22.426Z,2.4
2019-05-19T20:17:22.110Z,2.4
2019-05-19T20:19:22.255Z,2.5
2019-05-19T20:21:21.944Z,2.3
2019-05-19T20:23:21.881Z,2.3
2019-05-19T20:25:22.236Z,2.2
2019-05-19T20:27:21.782Z,2.1
2019-05-19T20:29:21.653Z,2.5
2019-05-19T20:31:21.414Z,2.6
2019-05-19T20:33:21.228Z,2.4
2019-05-19T20:35:21.150Z,2.6
2019-05-19T20:37:21.126Z,2.4
2019-05-19T20:39:20.917Z,3.1
2019-05-19T20:41:20.636Z,3
2019-05-19T20:43:20.675Z,2.3
2019-05-19T20:45:20.403Z,2.5
2019-05-19T20:47:20.284Z,3
2019-05-19T20:49:20.205Z,2.4
2019-05-19T20:51:20.118Z,2.5
2019-05-19T20:53:19.643Z,1.8
2019-05-19T20:55:19.775Z,1.9
2019-05-19T20:57:19.674Z,2
2019-05-19T20:59:19.542Z,1.7
2019-05-19T21:01:19.830Z,2.1
2019-05-19T21:03:19.203Z,1.9
2019-05-19T21:05:18.906Z,2
2019-05-19T21:07:18.865Z,2.1
2019-05-19T21:09:20.265Z,1.9
2019-05-19T21:11:18.628Z,1.8
2019-05-19T21:13:18.392Z,2.6
2019-05-19T21:15:18.321Z,2
2019-05-19T21:17:24.630Z,2.1
2019-05-19T21:19:17.879Z,2
2019-05-19T21:21:19.329Z,1.8
2019-05-19T21:23:17.975Z,2
2019-05-19T21:25:17.526Z,1.6
2019-05-19T21:27:17.428Z,1.8
2019-05-19T21:29:17.132Z,1.7
2019-05-19T21:31:17.253Z,1.6
2019-05-19T21:33:16.850Z,1.9
2019-05-19T21:35:16.787Z,2.1
2019-05-19T21:37:17.080Z,1.9
2019-05-19T21:39:16.371Z,1.8
2019-05-19T21:41:16.273Z,1.6
2019-05-19T21:43:16.184Z,1.9
2019-05-19T21:45:16.292Z,1.7
2019-05-19T21:47:15.766Z,1.9
2019-05-19T21:49:15.622Z,1.9
2019-05-19T21:51:15.585Z,1.9
2019-05-19T21:53:15.333Z,1.7
2019-05-19T21:55:15.299Z,1.8
2019-05-19T21:57:15.020Z,1.9
2019-05-19T21:59:14.919Z,2
2019-05-19T22:01:23.190Z,1.8
2019-05-19T22:03:15.658Z,2
2019-05-19T22:05:14.487Z,1.9
2019-05-19T22:07:14.212Z,1.9
2019-05-19T22:09:14.198Z,2
2019-05-19T22:11:13.948Z,1.7
2019-05-19T22:13:13.907Z,1.8
2019-05-19T22:15:13.921Z,2
2019-05-19T22:17:13.620Z,1.6
2019-05-19T22:19:15.891Z,2.1
2019-05-19T22:21:13.330Z,2
2019-05-19T22:23:12.987Z,1.8
2019-05-19T22:25:13.097Z,1.8
2019-05-19T22:27:14.310Z,1.6
2019-05-19T22:29:12.538Z,1.5
2019-05-19T22:31:12.482Z,1.8
2019-05-19T22:33:12.343Z,1.8
2019-05-19T22:35:13.131Z,1.9
2019-05-19T22:37:11.926Z,1.8
2019-05-19T22:39:12.101Z,1.6
2019-05-19T22:41:11.662Z,1.7
2019-05-19T22:43:11.327Z,1.7
2019-05-19T22:45:11.664Z,1.9
2019-05-19T22:47:11.120Z,2
2019-05-19T22:49:10.984Z,1.9
2019-05-19T22:51:10.930Z,1.9
2019-05-19T22:53:10.636Z,1.9
2019-05-19T22:55:12.063Z,2
2019-05-19T22:57:10.500Z,1.9
2019-05-19T22:59:19.208Z,2.1
2019-05-19T23:01:09.983Z,1.9
2019-05-19T23:03:09.689Z,2.2
2019-05-19T23:05:10.153Z,1.9
2019-05-19T23:07:09.323Z,2
2019-05-19T23:09:09.170Z,2
2019-05-19T23:11:08.855Z,2.3
2019-05-19T23:13:08.873Z,2.3
2019-05-19T23:15:10.227Z,2.5
2019-05-19T23:17:08.511Z,2.5
2019-05-19T23:19:08.595Z,2.2
2019-05-19T23:21:09.116Z,2.3
2019-05-19T23:23:07.866Z,2.4
2019-05-19T23:25:08.085Z,2.7
2019-05-19T23:27:07.365Z,2.5
2019-05-19T23:29:07.225Z,2.4
2019-05-19T23:31:07.024Z,2.6
2019-05-19T23:33:06.826Z,2.1
2019-05-19T23:35:06.911Z,2.4
2019-05-19T23:37:06.484Z,2.6
2019-05-19T23:39:06.405Z,2.5
2019-05-19T23:41:05.966Z,2.5
2019-05-19T23:43:05.864Z,2.2
2019-05-19T23:45:07.125Z,2.3
2019-05-19T23:47:05.597Z,2.2
2019-05-19T23:49:05.391Z,2.6
2019-05-19T23:51:04.979Z,2.1
2019-05-19T23:53:04.840Z,2.4
2019-05-19T23:55:04.908Z,2.4
2019-05-19T23:57:04.407Z,2.4
2019-05-19T23:59:04.380Z,2.5
